createdAt,value
2023-05-23T00:00:20.700Z,1010.47
2023-05-23T00:01:20.668Z,1010.47
2023-05-23T00:02:20.736Z,1010.51
2023-05-23T00:03:20.802Z,1010.53
2023-05-23T00:04:20.786Z,1010.56
2023-05-23T00:05:20.649Z,1010.57
2023-05-23T00:06:20.707Z,1010.56
2023-05-23T00:07:20.618Z,1010.54
2023-05-23T00:08:20.584Z,1010.54
2023-05-23T00:09:20.623Z,1010.58
2023-05-23T00:10:20.576Z,1010.54
2023-05-23T00:11:20.588Z,1010.58
2023-05-23T00:12:20.543Z,1010.61
2023-05-23T00:13:20.537Z,1010.61
2023-05-23T00:14:20.530Z,1010.65
2023-05-23T00:15:20.517Z,1010.63
2023-05-23T00:16:20.520Z,1010.61
2023-05-23T00:17:20.501Z,1010.65
2023-05-23T00:18:20.481Z,1010.71
2023-05-23T00:19:20.539Z,1010.68
2023-05-23T00:20:20.454Z,1010.69
2023-05-23T00:21:20.445Z,1010.73
2023-05-23T00:22:20.450Z,1010.71
2023-05-23T00:23:20.451Z,1010.71
2023-05-23T00:24:20.418Z,1010.69
2023-05-23T00:25:20.401Z,1010.70
2023-05-23T00:26:20.391Z,1010.72
2023-05-23T00:27:20.366Z,1010.70
2023-05-23T00:28:20.416Z,1010.72
2023-05-23T00:29:20.355Z,1010.74
2023-05-23T00:30:20.353Z,1010.66
2023-05-23T00:31:20.386Z,1010.68
2023-05-23T00:32:20.661Z,1010.69
2023-05-23T00:33:20.317Z,1010.65
2023-05-23T00:34:20.314Z,1010.62
2023-05-23T00:35:20.286Z,1010.67
2023-05-23T00:36:20.284Z,1010.63
2023-05-23T00:37:20.290Z,1010.68
2023-05-23T00:38:20.256Z,1010.63
2023-05-23T00:39:20.992Z,1010.63
2023-05-23T00:40:20.235Z,1010.68
2023-05-23T00:41:20.232Z,1010.68
2023-05-23T00:42:20.224Z,1010.70
2023-05-23T00:43:20.223Z,1010.66
2023-05-23T00:44:20.668Z,1010.63
2023-05-23T00:45:20.183Z,1010.65
2023-05-23T00:46:20.213Z,1010.65
2023-05-23T00:47:20.312Z,1010.66
2023-05-23T00:48:20.136Z,1010.69
2023-05-23T00:49:20.371Z,1010.74
2023-05-23T00:50:20.137Z,1010.68
2023-05-23T00:51:20.119Z,1010.71
2023-05-23T00:52:20.101Z,1010.65
2023-05-23T00:53:20.093Z,1010.71
2023-05-23T00:54:20.086Z,1010.67
2023-05-23T00:55:20.084Z,1010.67
2023-05-23T00:56:20.056Z,1010.71
2023-05-23T00:57:20.054Z,1010.70
2023-05-23T00:58:20.107Z,1010.72
2023-05-23T00:59:20.028Z,1010.73
2023-05-23T01:00:20.025Z,1010.71
2023-05-23T01:01:20.048Z,1010.72
2023-05-23T01:02:20.053Z,1010.70
2023-05-23T01:03:20.038Z,1010.68
2023-05-23T01:04:19.974Z,1010.68
2023-05-23T01:05:20.007Z,1010.66
2023-05-23T01:06:19.949Z,1010.68
2023-05-23T01:07:19.954Z,1010.67
2023-05-23T01:08:19.915Z,1010.66
2023-05-23T01:09:19.923Z,1010.68
2023-05-23T01:10:20.089Z,1010.66
2023-05-23T01:11:19.893Z,1010.65
2023-05-23T01:12:19.891Z,1010.71
2023-05-23T01:13:19.875Z,1010.71
2023-05-23T01:14:19.851Z,1010.71
2023-05-23T01:15:19.858Z,1010.70
2023-05-23T01:16:19.877Z,1010.73
2023-05-23T01:17:19.828Z,1010.75
2023-05-23T01:18:19.837Z,1010.75
2023-05-23T01:19:19.842Z,1010.76
2023-05-23T01:20:19.810Z,1010.77
2023-05-23T01:21:19.767Z,1010.79
2023-05-23T01:22:19.931Z,1010.77
2023-05-23T01:23:19.753Z,1010.80
2023-05-23T01:24:19.746Z,1010.80
2023-05-23T01:25:19.736Z,1010.81
2023-05-23T01:26:19.780Z,1010.82
2023-05-23T01:27:19.756Z,1010.83
2023-05-23T01:28:19.705Z,1010.76
2023-05-23T01:29:19.701Z,1010.76
2023-05-23T01:30:19.703Z,1010.78
2023-05-23T01:31:19.724Z,1010.75
2023-05-23T01:32:19.677Z,1010.75
2023-05-23T01:33:19.640Z,1010.79
2023-05-23T01:34:19.655Z,1010.78
2023-05-23T01:35:19.630Z,1010.80
2023-05-23T01:36:19.648Z,1010.78
2023-05-23T01:37:19.598Z,1010.77
2023-05-23T01:38:19.599Z,1010.77
2023-05-23T01:39:19.600Z,1010.78
2023-05-23T01:40:19.584Z,1010.81
2023-05-23T01:41:19.575Z,1010.82
2023-05-23T01:42:19.545Z,1010.82
2023-05-23T01:43:19.532Z,1010.84
2023-05-23T01:44:21.004Z,1010.81
2023-05-23T01:45:19.522Z,1010.82
2023-05-23T01:46:19.572Z,1010.83
2023-05-23T01:47:19.488Z,1010.84
2023-05-23T01:48:19.490Z,1010.81
2023-05-23T01:49:19.496Z,1010.78
2023-05-23T01:50:19.470Z,1010.79
2023-05-23T01:51:19.443Z,1010.84
2023-05-23T01:52:19.441Z,1010.80
2023-05-23T01:53:19.433Z,1010.78
2023-05-23T01:54:19.432Z,1010.78
2023-05-23T01:55:19.421Z,1010.79
2023-05-23T01:56:19.401Z,1010.78
2023-05-23T01:57:19.381Z,1010.81
2023-05-23T01:58:19.393Z,1010.83
2023-05-23T01:59:19.373Z,1010.80
2023-05-23T02:00:19.354Z,1010.86
2023-05-23T02:01:19.403Z,1010.80
2023-05-23T02:02:19.361Z,1010.82
2023-05-23T02:03:19.454Z,1010.80
2023-05-23T02:04:19.323Z,1010.85
2023-05-23T02:05:19.304Z,1010.83
2023-05-23T02:06:19.282Z,1010.85
2023-05-23T02:07:19.275Z,1010.89
2023-05-23T02:08:19.275Z,1010.87
2023-05-23T02:09:19.253Z,1010.93
2023-05-23T02:10:19.259Z,1010.90
2023-05-23T02:11:19.217Z,1010.95
2023-05-23T02:12:19.222Z,1010.96
2023-05-23T02:13:19.224Z,1010.97
2023-05-23T02:14:19.199Z,1011.00
2023-05-23T02:15:19.186Z,1011.02
2023-05-23T02:16:19.172Z,1011.03
2023-05-23T02:17:19.159Z,1011.04
2023-05-23T02:18:19.168Z,1011.03
2023-05-23T02:19:19.264Z,1011.05
2023-05-23T02:20:19.151Z,1011.08
2023-05-23T02:21:19.112Z,1011.06
2023-05-23T02:22:19.136Z,1011.09
2023-05-23T02:23:19.119Z,1011.08
2023-05-23T02:24:19.081Z,1011.10
2023-05-23T02:25:19.083Z,1011.09
2023-05-23T02:26:19.064Z,1011.11
2023-05-23T02:27:19.053Z,1011.16
2023-05-23T02:28:19.053Z,1011.24
2023-05-23T02:29:19.033Z,1011.17
2023-05-23T02:30:19.062Z,1011.22
2023-05-23T02:31:19.058Z,1011.24
2023-05-23T02:32:19.009Z,1011.22
2023-05-23T02:33:18.995Z,1011.27
2023-05-23T02:34:18.980Z,1011.30
2023-05-23T02:35:18.956Z,1011.25
2023-05-23T02:36:18.959Z,1011.32
2023-05-23T02:37:18.959Z,1011.32
2023-05-23T02:38:18.949Z,1011.33
2023-05-23T02:39:18.916Z,1011.35
2023-05-23T02:40:18.910Z,1011.33
2023-05-23T02:41:18.913Z,1011.37
2023-05-23T02:42:18.887Z,1011.35
2023-05-23T02:43:18.871Z,1011.35
2023-05-23T02:44:18.869Z,1011.35
2023-05-23T02:45:18.859Z,1011.37
2023-05-23T02:46:18.883Z,1011.32
2023-05-23T02:47:18.832Z,1011.28
2023-05-23T02:48:18.829Z,1011.30
2023-05-23T02:49:18.807Z,1011.29
2023-05-23T02:50:18.804Z,1011.28
2023-05-23T02:51:18.778Z,1011.30
2023-05-23T02:52:18.771Z,1011.27
2023-05-23T02:53:18.760Z,1011.28
2023-05-23T02:54:18.753Z,1011.32
2023-05-23T02:55:18.750Z,1011.30
2023-05-23T02:56:18.743Z,1011.34
2023-05-23T02:57:18.722Z,1011.34
2023-05-23T02:58:18.711Z,1011.36
2023-05-23T02:59:18.711Z,1011.33
2023-05-23T03:00:18.695Z,1011.33
2023-05-23T03:01:18.678Z,1011.31
2023-05-23T03:02:18.754Z,1011.35
2023-05-23T03:03:18.829Z,1011.34
2023-05-23T03:04:18.711Z,1011.30
2023-05-23T03:05:18.692Z,1011.33
2023-05-23T03:06:18.725Z,1011.33
2023-05-23T03:07:27.603Z,1011.27
2023-05-23T03:08:19.693Z,1011.28
2023-05-23T03:09:18.707Z,1011.31
2023-05-23T03:10:18.682Z,1011.32
2023-05-23T03:11:18.662Z,1011.32
2023-05-23T03:12:18.664Z,1011.30
2023-05-23T03:13:18.683Z,1011.33
2023-05-23T03:14:18.647Z,1011.30
2023-05-23T03:15:18.750Z,1011.32
2023-05-23T03:16:18.643Z,1011.33
2023-05-23T03:17:18.606Z,1011.37
2023-05-23T03:18:18.606Z,1011.34
2023-05-23T03:19:18.682Z,1011.37
2023-05-23T03:20:18.575Z,1011.38
2023-05-23T03:21:18.550Z,1011.34
2023-05-23T03:22:18.553Z,1011.39
2023-05-23T03:23:18.592Z,1011.37
2023-05-23T03:24:18.518Z,1011.38
2023-05-23T03:25:18.518Z,1011.38
2023-05-23T03:26:18.498Z,1011.37
2023-05-23T03:27:18.499Z,1011.36
2023-05-23T03:28:18.495Z,1011.36
2023-05-23T03:29:18.466Z,1011.39
2023-05-23T03:30:18.471Z,1011.40
2023-05-23T03:31:18.466Z,1011.43
2023-05-23T03:32:18.454Z,1011.41
2023-05-23T03:33:18.442Z,1011.43
2023-05-23T03:34:18.412Z,1011.47
2023-05-23T03:35:18.394Z,1011.49
2023-05-23T03:36:18.509Z,1011.48
2023-05-23T03:37:18.408Z,1011.51
2023-05-23T03:38:18.394Z,1011.51
2023-05-23T03:39:18.360Z,1011.51
2023-05-23T03:40:18.342Z,1011.53
2023-05-23T03:41:18.327Z,1011.53
2023-05-23T03:42:18.338Z,1011.53
2023-05-23T03:43:18.306Z,1011.51
2023-05-23T03:44:18.304Z,1011.53
2023-05-23T03:45:18.295Z,1011.56
2023-05-23T03:46:18.366Z,1011.54
2023-05-23T03:47:18.282Z,1011.58
2023-05-23T03:48:18.264Z,1011.61
2023-05-23T03:49:18.238Z,1011.56
2023-05-23T03:50:18.251Z,1011.52
2023-05-23T03:51:18.233Z,1011.49
2023-05-23T03:52:18.221Z,1011.53
2023-05-23T03:53:18.206Z,1011.56
2023-05-23T03:54:18.193Z,1011.55
2023-05-23T03:55:18.174Z,1011.56
2023-05-23T03:56:18.181Z,1011.57
2023-05-23T03:57:18.146Z,1011.61
2023-05-23T03:58:18.149Z,1011.59
2023-05-23T03:59:18.135Z,1011.61
2023-05-23T04:00:18.110Z,1011.62
2023-05-23T04:01:18.130Z,1011.64
2023-05-23T04:02:18.163Z,1011.66
2023-05-23T04:03:18.279Z,1011.64
2023-05-23T04:04:18.126Z,1011.67
2023-05-23T04:05:18.103Z,1011.65
2023-05-23T04:06:18.090Z,1011.67
2023-05-23T04:07:18.045Z,1011.64
2023-05-23T04:08:18.032Z,1011.67
2023-05-23T04:09:18.036Z,1011.65
2023-05-23T04:10:18.027Z,1011.68
2023-05-23T04:11:18.048Z,1011.64
2023-05-23T04:12:18.010Z,1011.67
2023-05-23T04:13:17.970Z,1011.68
2023-05-23T04:14:17.980Z,1011.73
2023-05-23T04:15:18.115Z,1011.74
2023-05-23T04:16:17.992Z,1011.71
2023-05-23T04:17:17.929Z,1011.74
2023-05-23T04:18:17.942Z,1011.80
2023-05-23T04:19:18.256Z,1011.79
2023-05-23T04:20:17.932Z,1011.83
2023-05-23T04:21:17.899Z,1011.79
2023-05-23T04:22:17.874Z,1011.81
2023-05-23T04:23:17.792Z,1011.77
2023-05-23T04:24:17.852Z,1011.80
2023-05-23T04:25:17.778Z,1011.79
2023-05-23T04:26:17.738Z,1011.77
2023-05-23T04:27:17.719Z,1011.78
2023-05-23T04:28:17.807Z,1011.77
2023-05-23T04:29:17.752Z,1011.80
2023-05-23T04:30:17.706Z,1011.78
2023-05-23T04:31:17.735Z,1011.81
2023-05-23T04:32:17.659Z,1011.79
2023-05-23T04:33:17.678Z,1011.79
2023-05-23T04:34:17.669Z,1011.82
2023-05-23T04:35:17.637Z,1011.81
2023-05-23T04:36:17.729Z,1011.85
2023-05-23T04:37:17.601Z,1011.84
2023-05-23T04:38:17.627Z,1011.80
2023-05-23T04:39:17.586Z,1011.80
2023-05-23T04:40:17.574Z,1011.82
2023-05-23T04:41:17.580Z,1011.85
2023-05-23T04:42:17.546Z,1011.85
2023-05-23T04:43:17.565Z,1011.87
2023-05-23T04:44:17.525Z,1011.85
2023-05-23T04:45:17.520Z,1011.85
2023-05-23T04:46:17.605Z,1011.83
2023-05-23T04:47:17.505Z,1011.81
2023-05-23T04:48:17.498Z,1011.87
2023-05-23T04:49:17.486Z,1011.87
2023-05-23T04:50:17.464Z,1011.85
2023-05-23T04:51:17.457Z,1011.83
2023-05-23T04:52:17.513Z,1011.86
2023-05-23T04:53:17.466Z,1011.85
2023-05-23T04:54:17.428Z,1011.84
2023-05-23T04:55:17.405Z,1011.89
2023-05-23T04:56:17.577Z,1011.88
2023-05-23T04:57:17.399Z,1011.91
2023-05-23T04:58:17.386Z,1011.95
2023-05-23T04:59:17.370Z,1011.89
2023-05-23T05:00:17.369Z,1011.92
2023-05-23T05:01:17.396Z,1011.95
2023-05-23T05:02:17.388Z,1011.95
2023-05-23T05:03:17.316Z,1011.94
2023-05-23T05:04:17.358Z,1011.97
2023-05-23T05:05:17.293Z,1011.98
2023-05-23T05:06:17.311Z,1011.96
2023-05-23T05:07:17.672Z,1012.00
2023-05-23T05:08:17.288Z,1011.97
2023-05-23T05:09:17.261Z,1011.94
2023-05-23T05:10:17.316Z,1011.92
2023-05-23T05:11:17.253Z,1011.93
2023-05-23T05:12:17.230Z,1011.94
2023-05-23T05:13:17.251Z,1011.96
2023-05-23T05:14:17.198Z,1011.97
2023-05-23T05:15:17.180Z,1011.93
2023-05-23T05:16:17.226Z,1011.95
2023-05-23T05:17:17.159Z,1011.99
2023-05-23T05:18:17.350Z,1011.98
2023-05-23T05:19:17.194Z,1012.01
2023-05-23T05:20:17.285Z,1012.00
2023-05-23T05:21:17.123Z,1011.99
2023-05-23T05:22:17.120Z,1011.99
2023-05-23T05:23:17.096Z,1011.99
2023-05-23T05:24:17.131Z,1011.96
2023-05-23T05:25:17.082Z,1011.98
2023-05-23T05:26:17.204Z,1012.03
2023-05-23T05:27:17.055Z,1012.02
2023-05-23T05:28:17.092Z,1012.05
2023-05-23T05:29:17.101Z,1012.05
2023-05-23T05:30:17.766Z,1012.07
2023-05-23T05:31:17.970Z,1012.06
2023-05-23T05:32:31.792Z,1012.12
2023-05-23T05:33:17.758Z,1012.11
2023-05-23T05:34:17.292Z,1012.09
2023-05-23T05:35:17.685Z,1012.10
2023-05-23T05:36:17.514Z,1012.11
2023-05-23T05:37:16.948Z,1012.13
2023-05-23T05:38:17.332Z,1012.15
2023-05-23T05:39:18.470Z,1012.16
2023-05-23T05:40:16.970Z,1012.15
2023-05-23T05:41:16.910Z,1012.20
2023-05-23T05:42:16.923Z,1012.18
2023-05-23T05:43:16.898Z,1012.24
2023-05-23T05:44:16.939Z,1012.21
2023-05-23T05:45:16.871Z,1012.23
2023-05-23T05:46:16.948Z,1012.26
2023-05-23T05:47:16.827Z,1012.22
2023-05-23T05:48:16.821Z,1012.25
2023-05-23T05:49:16.867Z,1012.26
2023-05-23T05:50:16.878Z,1012.24
2023-05-23T05:51:16.797Z,1012.27
2023-05-23T05:52:16.788Z,1012.29
2023-05-23T05:53:16.790Z,1012.23
2023-05-23T05:54:19.121Z,1012.24
2023-05-23T05:55:16.752Z,1012.26
2023-05-23T05:56:16.769Z,1012.25
2023-05-23T05:57:16.740Z,1012.26
2023-05-23T05:58:16.896Z,1012.30
2023-05-23T05:59:16.763Z,1012.32
2023-05-23T06:00:16.723Z,1012.31
2023-05-23T06:01:16.714Z,1012.31
2023-05-23T06:02:16.729Z,1012.35
2023-05-23T06:03:16.824Z,1012.35
2023-05-23T06:04:16.708Z,1012.37
2023-05-23T06:05:16.659Z,1012.36
2023-05-23T06:06:16.727Z,1012.35
2023-05-23T06:07:16.642Z,1012.38
2023-05-23T06:08:16.632Z,1012.42
2023-05-23T06:09:16.606Z,1012.38
2023-05-23T06:10:16.608Z,1012.40
2023-05-23T06:11:16.589Z,1012.41
2023-05-23T06:12:16.593Z,1012.44
2023-05-23T06:13:16.556Z,1012.39
2023-05-23T06:14:16.601Z,1012.43
2023-05-23T06:15:16.541Z,1012.43
2023-05-23T06:16:16.593Z,1012.43
2023-05-23T06:17:17.114Z,1012.43
2023-05-23T06:18:16.551Z,1012.44
2023-05-23T06:19:16.548Z,1012.48
2023-05-23T06:20:16.481Z,1012.51
2023-05-23T06:21:16.480Z,1012.53
2023-05-23T06:22:16.455Z,1012.50
2023-05-23T06:23:16.487Z,1012.51
2023-05-23T06:24:16.432Z,1012.51
2023-05-23T06:25:16.411Z,1012.54
2023-05-23T06:26:16.455Z,1012.50
2023-05-23T06:27:16.410Z,1012.54
2023-05-23T06:28:16.398Z,1012.53
2023-05-23T06:29:16.376Z,1012.56
2023-05-23T06:30:16.373Z,1012.58
2023-05-23T06:31:16.438Z,1012.57
2023-05-23T06:32:16.352Z,1012.48
2023-05-23T06:33:16.324Z,1012.54
2023-05-23T06:34:16.325Z,1012.53
2023-05-23T06:35:16.324Z,1012.54
2023-05-23T06:36:16.322Z,1012.53
2023-05-23T06:37:16.278Z,1012.53
2023-05-23T06:38:17.797Z,1012.52
2023-05-23T06:39:16.266Z,1012.54
2023-05-23T06:40:16.269Z,1012.56
2023-05-23T06:41:16.258Z,1012.56
2023-05-23T06:42:16.225Z,1012.57
2023-05-23T06:43:16.215Z,1012.55
2023-05-23T06:44:16.208Z,1012.54
2023-05-23T06:45:16.732Z,1012.58
2023-05-23T06:46:16.284Z,1012.60
2023-05-23T06:47:16.168Z,1012.59
2023-05-23T06:48:16.152Z,1012.62
2023-05-23T06:49:16.168Z,1012.65
2023-05-23T06:50:16.133Z,1012.57
2023-05-23T06:51:16.155Z,1012.65
2023-05-23T06:52:16.146Z,1012.62
2023-05-23T06:53:18.180Z,1012.66
2023-05-23T06:54:16.127Z,1012.68
2023-05-23T06:55:16.107Z,1012.68
2023-05-23T06:56:16.086Z,1012.68
2023-05-23T06:57:16.064Z,1012.66
2023-05-23T06:58:16.071Z,1012.72
2023-05-23T06:59:16.059Z,1012.70
2023-05-23T07:00:16.046Z,1012.71
2023-05-23T07:01:16.033Z,1012.68
2023-05-23T07:02:16.118Z,1012.68
2023-05-23T07:03:16.016Z,1012.71
2023-05-23T07:04:15.979Z,1012.74
2023-05-23T07:05:16.025Z,1012.75
2023-05-23T07:06:15.961Z,1012.70
2023-05-23T07:07:15.956Z,1012.72
2023-05-23T07:08:15.962Z,1012.78
2023-05-23T07:09:15.936Z,1012.79
2023-05-23T07:10:15.934Z,1012.75
2023-05-23T07:11:15.916Z,1012.79
2023-05-23T07:12:16.590Z,1012.77
2023-05-23T07:13:15.893Z,1012.77
2023-05-23T07:14:15.877Z,1012.79
2023-05-23T07:15:15.902Z,1012.78
2023-05-23T07:16:15.843Z,1012.76
2023-05-23T07:17:15.947Z,1012.75
2023-05-23T07:18:15.822Z,1012.81
2023-05-23T07:19:15.864Z,1012.76
2023-05-23T07:20:15.856Z,1012.75
2023-05-23T07:21:15.791Z,1012.80
2023-05-23T07:22:15.796Z,1012.78
2023-05-23T07:23:15.786Z,1012.78
2023-05-23T07:24:15.786Z,1012.78
2023-05-23T07:25:15.761Z,1012.78
2023-05-23T07:26:15.745Z,1012.84
2023-05-23T07:27:15.738Z,1012.74
2023-05-23T07:28:15.723Z,1012.78
2023-05-23T07:29:15.843Z,1012.81
2023-05-23T07:30:15.838Z,1012.82
2023-05-23T07:31:15.758Z,1012.79
2023-05-23T07:32:15.709Z,1012.82
2023-05-23T07:33:15.708Z,1012.80
2023-05-23T07:34:15.650Z,1012.81
2023-05-23T07:35:15.654Z,1012.81
2023-05-23T07:36:15.718Z,1012.82
2023-05-23T07:37:15.643Z,1012.83
2023-05-23T07:38:15.684Z,1012.79
2023-05-23T07:39:15.613Z,1012.79
2023-05-23T07:40:15.594Z,1012.75
2023-05-23T07:41:15.597Z,1012.76
2023-05-23T07:42:15.572Z,1012.82
2023-05-23T07:43:15.580Z,1012.74
2023-05-23T07:44:15.597Z,1012.75
2023-05-23T07:45:15.542Z,1012.69
2023-05-23T07:46:15.599Z,1012.76
2023-05-23T07:47:15.544Z,1012.74
2023-05-23T07:48:15.500Z,1012.76
2023-05-23T07:49:15.486Z,1012.83
2023-05-23T07:50:15.496Z,1012.81
2023-05-23T07:51:15.465Z,1012.78
2023-05-23T07:52:15.486Z,1012.85
2023-05-23T07:53:15.437Z,1012.85
2023-05-23T07:54:16.742Z,1012.83
2023-05-23T07:55:15.432Z,1012.81
2023-05-23T07:56:15.402Z,1012.82
2023-05-23T07:57:15.398Z,1012.87
2023-05-23T07:58:15.424Z,1012.91
2023-05-23T07:59:15.401Z,1012.91
2023-05-23T08:00:15.387Z,1012.91
2023-05-23T08:01:15.365Z,1012.92
2023-05-23T08:02:15.440Z,1012.94
2023-05-23T08:03:15.425Z,1012.97
2023-05-23T08:04:15.374Z,1012.91
2023-05-23T08:05:15.302Z,1012.95
2023-05-23T08:06:15.356Z,1012.95
2023-05-23T08:07:16.773Z,1012.99
2023-05-23T08:08:15.275Z,1013.01
2023-05-23T08:09:15.349Z,1013.02
2023-05-23T08:10:15.256Z,1013.03
2023-05-23T08:11:15.247Z,1013.05
2023-05-23T08:12:15.258Z,1013.02
2023-05-23T08:13:15.230Z,1013.10
2023-05-23T08:14:15.299Z,1013.05
2023-05-23T08:15:15.245Z,1013.07
2023-05-23T08:16:15.230Z,1013.14
2023-05-23T08:17:15.314Z,1013.14
2023-05-23T08:18:15.222Z,1013.13
2023-05-23T08:19:15.233Z,1013.15
2023-05-23T08:20:15.157Z,1013.16
2023-05-23T08:21:15.131Z,1013.19
2023-05-23T08:22:15.140Z,1013.18
2023-05-23T08:23:15.131Z,1013.16
2023-05-23T08:24:15.338Z,1013.23
2023-05-23T08:25:15.100Z,1013.20
2023-05-23T08:26:15.088Z,1013.20
2023-05-23T08:27:15.101Z,1013.20
2023-05-23T08:28:15.067Z,1013.19
2023-05-23T08:29:15.053Z,1013.22
2023-05-23T08:30:15.052Z,1013.20
2023-05-23T08:31:15.026Z,1013.22
2023-05-23T08:32:15.235Z,1013.18
2023-05-23T08:33:15.032Z,1013.20
2023-05-23T08:34:15.032Z,1013.20
2023-05-23T08:35:14.969Z,1013.23
2023-05-23T08:36:14.967Z,1013.28
2023-05-23T08:37:15.351Z,1013.23
2023-05-23T08:38:14.950Z,1013.25
2023-05-23T08:39:14.965Z,1013.19
2023-05-23T08:40:14.924Z,1013.24
2023-05-23T08:41:14.918Z,1013.17
2023-05-23T08:42:15.145Z,1013.25
2023-05-23T08:43:14.902Z,1013.26
2023-05-23T08:44:14.925Z,1013.29
2023-05-23T08:45:14.888Z,1013.28
2023-05-23T08:46:14.921Z,1013.30
2023-05-23T08:47:14.865Z,1013.35
2023-05-23T08:48:14.871Z,1013.34
2023-05-23T08:49:14.828Z,1013.30
2023-05-23T08:50:14.871Z,1013.34
2023-05-23T08:51:14.813Z,1013.32
2023-05-23T08:52:14.787Z,1013.35
2023-05-23T08:53:14.804Z,1013.36
2023-05-23T08:54:14.787Z,1013.41
2023-05-23T08:55:14.788Z,1013.39
2023-05-23T08:56:14.889Z,1013.39
2023-05-23T08:57:14.738Z,1013.40
2023-05-23T08:58:14.736Z,1013.41
2023-05-23T08:59:14.723Z,1013.37
2023-05-23T09:00:14.784Z,1013.40
2023-05-23T09:01:14.814Z,1013.41
2023-05-23T09:02:14.682Z,1013.46
2023-05-23T09:03:15.466Z,1013.50
2023-05-23T09:04:14.686Z,1013.45
2023-05-23T09:05:14.712Z,1013.52
2023-05-23T09:06:14.713Z,1013.50
2023-05-23T09:07:14.635Z,1013.48
2023-05-23T09:08:14.630Z,1013.50
2023-05-23T09:09:14.604Z,1013.51
2023-05-23T09:10:14.624Z,1013.50
2023-05-23T09:11:14.581Z,1013.57
2023-05-23T09:12:14.576Z,1013.54
2023-05-23T09:13:14.569Z,1013.58
2023-05-23T09:14:14.614Z,1013.58
2023-05-23T09:15:14.544Z,1013.55
2023-05-23T09:16:14.613Z,1013.62
2023-05-23T09:17:14.521Z,1013.68
2023-05-23T09:18:14.529Z,1013.67
2023-05-23T09:19:14.595Z,1013.66
2023-05-23T09:20:14.611Z,1013.65
2023-05-23T09:21:14.473Z,1013.66
2023-05-23T09:22:14.536Z,1013.70
2023-05-23T09:23:14.469Z,1013.68
2023-05-23T09:24:14.493Z,1013.67
2023-05-23T09:25:14.444Z,1013.70
2023-05-23T09:26:14.685Z,1013.67
2023-05-23T09:27:14.418Z,1013.74
2023-05-23T09:28:14.400Z,1013.73
2023-05-23T09:29:14.415Z,1013.76
2023-05-23T09:30:14.420Z,1013.71
2023-05-23T09:31:14.386Z,1013.76
2023-05-23T09:32:14.405Z,1013.79
2023-05-23T09:33:14.363Z,1013.79
2023-05-23T09:34:14.359Z,1013.73
2023-05-23T09:35:14.646Z,1013.75
2023-05-23T09:36:14.308Z,1013.76
2023-05-23T09:37:14.322Z,1013.74
2023-05-23T09:38:14.289Z,1013.76
2023-05-23T09:39:14.268Z,1013.69
2023-05-23T09:40:14.350Z,1013.72
2023-05-23T09:41:14.267Z,1013.74
2023-05-23T09:42:14.307Z,1013.77
2023-05-23T09:43:14.233Z,1013.79
2023-05-23T09:44:14.235Z,1013.76
2023-05-23T09:45:14.213Z,1013.78
2023-05-23T09:46:14.219Z,1013.77
2023-05-23T09:47:14.554Z,1013.74
2023-05-23T09:48:14.688Z,1013.79
2023-05-23T09:49:14.182Z,1013.74
2023-05-23T09:50:14.521Z,1013.75
2023-05-23T09:51:14.246Z,1013.81
2023-05-23T09:52:14.289Z,1013.76
2023-05-23T09:53:14.150Z,1013.80
2023-05-23T09:54:14.164Z,1013.78
2023-05-23T09:55:14.133Z,1013.79
2023-05-23T09:56:14.172Z,1013.70
2023-05-23T09:57:14.122Z,1013.83
2023-05-23T09:58:14.140Z,1013.83
2023-05-23T09:59:14.060Z,1013.85
2023-05-23T10:00:14.221Z,1013.85
2023-05-23T10:01:14.138Z,1013.82
2023-05-23T10:02:14.054Z,1013.84
2023-05-23T10:03:14.493Z,1013.88
2023-05-23T10:04:14.121Z,1013.91
2023-05-23T10:05:14.013Z,1013.89
2023-05-23T10:06:14.053Z,1013.95
2023-05-23T10:07:13.981Z,1013.96
2023-05-23T10:08:13.984Z,1014.02
2023-05-23T10:09:13.969Z,1014.01
2023-05-23T10:10:14.047Z,1014.01
2023-05-23T10:11:13.965Z,1014.02
2023-05-23T10:12:13.923Z,1014.04
2023-05-23T10:13:13.924Z,1014.05
2023-05-23T10:14:13.920Z,1014.07
2023-05-23T10:15:13.903Z,1014.09
2023-05-23T10:16:13.912Z,1014.10
2023-05-23T10:17:13.948Z,1014.03
2023-05-23T10:18:13.877Z,1014.08
2023-05-23T10:19:14.328Z,1014.10
2023-05-23T10:20:13.844Z,1014.10
2023-05-23T10:21:13.829Z,1014.09
2023-05-23T10:22:13.901Z,1014.09
2023-05-23T10:23:13.804Z,1014.11
2023-05-23T10:24:13.821Z,1014.12
2023-05-23T10:25:13.779Z,1014.10
2023-05-23T10:26:13.810Z,1014.17
2023-05-23T10:27:13.777Z,1014.10
2023-05-23T10:28:13.780Z,1014.14
2023-05-23T10:29:13.753Z,1014.20
2023-05-23T10:30:13.793Z,1014.22
2023-05-23T10:31:13.755Z,1014.19
2023-05-23T10:32:13.714Z,1014.22
2023-05-23T10:33:13.714Z,1014.22
2023-05-23T10:34:13.761Z,1014.22
2023-05-23T10:35:13.678Z,1014.20
2023-05-23T10:36:13.733Z,1014.23
2023-05-23T10:37:13.662Z,1014.20
2023-05-23T10:38:13.657Z,1014.24
2023-05-23T10:39:13.622Z,1014.23
2023-05-23T10:40:13.625Z,1014.23
2023-05-23T10:41:13.644Z,1014.25
2023-05-23T10:42:13.702Z,1014.27
2023-05-23T10:43:13.600Z,1014.28
2023-05-23T10:44:13.852Z,1014.26
2023-05-23T10:45:13.554Z,1014.27
2023-05-23T10:46:13.629Z,1014.23
2023-05-23T10:47:13.719Z,1014.24
2023-05-23T10:48:13.582Z,1014.23
2023-05-23T10:49:13.512Z,1014.22
2023-05-23T10:50:13.554Z,1014.21
2023-05-23T10:51:13.494Z,1014.24
2023-05-23T10:52:13.513Z,1014.21
2023-05-23T10:53:13.458Z,1014.28
2023-05-23T10:54:13.514Z,1014.31
2023-05-23T10:55:13.458Z,1014.16
2023-05-23T10:56:13.498Z,1014.18
2023-05-23T10:57:13.497Z,1014.23
2023-05-23T10:58:13.459Z,1014.25
2023-05-23T10:59:13.431Z,1014.31
2023-05-23T11:00:13.474Z,1014.17
2023-05-23T11:01:13.406Z,1014.18
2023-05-23T11:02:13.576Z,1014.19
2023-05-23T11:03:13.463Z,1014.26
2023-05-23T11:04:13.453Z,1014.22
2023-05-23T11:05:13.349Z,1014.26
2023-05-23T11:06:13.327Z,1014.25
2023-05-23T11:07:13.305Z,1014.22
2023-05-23T11:08:13.314Z,1014.23
2023-05-23T11:09:13.414Z,1014.37
2023-05-23T11:10:13.441Z,1014.19
2023-05-23T11:11:13.270Z,1014.23
2023-05-23T11:12:13.273Z,1014.17
2023-05-23T11:13:13.244Z,1014.42
2023-05-23T11:14:13.227Z,1014.21
2023-05-23T11:15:13.234Z,1014.42
2023-05-23T11:16:13.308Z,1014.40
2023-05-23T11:17:13.259Z,1014.22
2023-05-23T11:18:13.239Z,1014.37
2023-05-23T11:19:13.265Z,1014.46
2023-05-23T11:20:13.370Z,1014.42
2023-05-23T11:21:13.155Z,1014.48
2023-05-23T11:22:13.179Z,1014.51
2023-05-23T11:23:13.155Z,1014.52
2023-05-23T11:24:13.144Z,1014.45
2023-05-23T11:25:13.188Z,1014.49
2023-05-23T11:26:13.100Z,1014.45
2023-05-23T11:27:13.120Z,1014.56
2023-05-23T11:28:13.124Z,1014.21
2023-05-23T11:29:13.089Z,1014.43
2023-05-23T11:30:13.125Z,1014.24
2023-05-23T11:31:13.074Z,1014.40
2023-05-23T11:32:17.316Z,1014.33
2023-05-23T11:33:13.063Z,1014.22
2023-05-23T11:34:13.307Z,1014.21
2023-05-23T11:35:13.015Z,1014.21
2023-05-23T11:36:13.021Z,1014.28
2023-05-23T11:37:13.023Z,1014.25
2023-05-23T11:38:12.993Z,1014.24
2023-05-23T11:39:12.961Z,1014.32
2023-05-23T11:40:13.058Z,1014.28
2023-05-23T11:41:12.950Z,1014.43
2023-05-23T11:42:12.940Z,1014.34
2023-05-23T11:43:12.953Z,1014.26
2023-05-23T11:44:12.967Z,1014.32
2023-05-23T11:45:13.902Z,1014.28
2023-05-23T11:46:12.947Z,1014.39
2023-05-23T11:47:12.924Z,1014.33
2023-05-23T11:48:13.085Z,1014.32
2023-05-23T11:49:13.053Z,1014.30
2023-05-23T11:50:12.862Z,1014.25
2023-05-23T11:51:12.834Z,1014.33
2023-05-23T11:52:12.897Z,1014.30
2023-05-23T11:53:12.869Z,1014.29
2023-05-23T11:54:12.882Z,1014.34
2023-05-23T11:55:12.809Z,1014.33
2023-05-23T11:56:12.790Z,1014.35
2023-05-23T11:57:12.777Z,1014.37
2023-05-23T11:58:12.759Z,1014.35
2023-05-23T11:59:12.934Z,1014.37
2023-05-23T12:00:12.774Z,1014.43
2023-05-23T12:01:12.746Z,1014.42
2023-05-23T12:02:12.756Z,1014.44
2023-05-23T12:03:12.903Z,1014.46
2023-05-23T12:04:13.116Z,1014.42
2023-05-23T12:05:12.687Z,1014.34